Terminal Aerodrome Forecast
Issued by NWS

Home | Current Version | Previous Version | Text Only | Print | Product List | Glossary On
Versions: 1 2 3 4 5 6 7 8 9 10 11 12 13 14 15 16 17
000
FTUS41 KCLE 010500
TAFFDY
TAF
KFDY 010523Z 0106/0206 35015G25KT 3SM -SN BKN008 OVC015
      TEMPO 0106/0110 1SM -SN BR OVC005
     FM011000 35015G25KT 6SM -SN BKN010 OVC022
     FM011500 36015G25KT P6SM OVC020
     FM012100 36014G22KT P6SM SCT025
     FM020000 35009KT P6SM SCT030=

USA.gov is the U.S. government's official web portal to all federal, state and local government web resources and services.